createdAt,value
2016-06-17T13:14:15.109Z,999.05
2016-06-17T13:15:15.112Z,999.05
2016-06-17T13:16:15.100Z,999.05
2016-06-17T13:17:15.088Z,999.09
2016-06-17T13:18:15.075Z,999.11
2016-06-17T13:19:15.064Z,999.11
2016-06-17T13:20:15.051Z,999.12
2016-06-17T13:21:15.055Z,999.15
2016-06-17T13:22:15.043Z,999.2
2016-06-17T13:23:15.046Z,999.19
2016-06-17T13:24:15.034Z,999.18
2016-06-17T13:25:15.022Z,999.25
2016-06-17T13:26:15.025Z,999.25
2016-06-17T13:27:15.014Z,999.2
2016-06-17T13:28:15.017Z,999.26
2016-06-17T13:29:15.005Z,999.27
2016-06-17T13:30:15.007Z,999.28
2016-06-17T13:31:14.996Z,999.26
2016-06-17T13:32:14.998Z,999.28
2016-06-17T13:33:14.987Z,999.3
2016-06-17T13:34:14.975Z,999.26
2016-06-17T13:35:14.978Z,999.3
2016-06-17T13:36:14.982Z,999.33
2016-06-17T13:37:14.969Z,999.4
2016-06-17T13:38:14.973Z,999.38
2016-06-17T13:39:14.961Z,999.39
2016-06-17T13:40:14.948Z,999.38
2016-06-17T13:41:14.952Z,999.41
2016-06-17T13:42:14.956Z,999.39
2016-06-17T13:43:14.943Z,999.41
2016-06-17T13:44:14.948Z,999.35
2016-06-17T13:45:14.934Z,999.38
2016-06-17T13:46:14.939Z,999.42
2016-06-17T13:47:14.925Z,999.46
2016-06-17T13:48:14.929Z,999.46
2016-06-17T13:49:14.980Z,999.51
2016-06-17T13:50:14.921Z,999.54
2016-06-17T13:51:14.940Z,999.52
2016-06-17T13:52:14.928Z,999.56
2016-06-17T13:53:14.931Z,999.56
2016-06-17T13:54:14.919Z,999.55
2016-06-17T13:55:14.922Z,999.57
2016-06-17T13:56:14.910Z,999.62
2016-06-17T13:57:14.914Z,999.6
2016-06-17T13:58:14.920Z,999.65
2016-06-17T13:59:14.925Z,999.63
2016-06-17T14:00:14.916Z,999.62
2016-06-17T14:01:14.906Z,999.66
2016-06-17T14:02:14.912Z,999.63
2016-06-17T14:03:15.118Z,999.66
2016-06-17T14:04:14.904Z,999.67
2016-06-17T14:05:14.909Z,999.69
2016-06-17T14:06:14.897Z,999.67
2016-06-17T14:07:32.858Z,999.68
2016-06-17T14:08:14.889Z,999.74
2016-06-17T14:09:14.878Z,999.78
2016-06-17T14:10:14.882Z,999.71
2016-06-17T14:11:14.870Z,999.77
2016-06-17T14:12:14.874Z,999.76
2016-06-17T14:13:14.861Z,999.78
2016-06-17T14:14:14.850Z,999.83
2016-06-17T14:15:14.853Z,999.78
2016-06-17T14:16:14.840Z,999.83
2016-06-17T14:17:14.828Z,999.85
2016-06-17T14:18:14.832Z,999.9
2016-06-17T14:19:14.820Z,999.91
2016-06-17T14:20:14.807Z,999.92
2016-06-17T14:21:14.810Z,999.96
2016-06-17T14:22:14.800Z,999.99
2016-06-17T14:23:14.786Z,999.98
2016-06-17T14:24:14.790Z,1000.02
2016-06-17T14:25:14.778Z,1000.01
2016-06-17T14:26:14.766Z,1000.07
2016-06-17T14:27:14.769Z,1000.06
2016-06-17T14:28:14.757Z,1000.06
2016-06-17T14:29:14.745Z,1000.1
2016-06-17T14:30:14.748Z,1000.06
2016-06-17T14:31:14.737Z,1000.04
2016-06-17T14:32:14.725Z,1000.11
2016-06-17T14:33:14.714Z,1000.13
2016-06-17T14:34:14.718Z,1000.16
2016-06-17T14:35:14.707Z,1000.2
2016-06-17T14:36:14.727Z,1000.22
2016-06-17T14:37:14.683Z,1000.2
2016-06-17T14:38:14.687Z,1000.24
2016-06-17T14:39:14.675Z,1000.23
2016-06-17T14:40:14.664Z,1000.24
2016-06-17T14:41:14.652Z,1000.3
2016-06-17T14:42:14.656Z,1000.36
2016-06-17T14:43:14.643Z,1000.34
2016-06-17T14:44:14.631Z,1000.37
2016-06-17T14:45:14.618Z,1000.36
2016-06-17T14:46:14.606Z,1000.36
2016-06-17T14:47:14.610Z,1000.33
2016-06-17T14:48:14.598Z,1000.3
2016-06-17T14:49:14.586Z,1000.35
2016-06-17T14:50:14.574Z,1000.36
2016-06-17T14:51:14.577Z,1000.3
2016-06-17T14:52:14.565Z,1000.3
2016-06-17T14:53:14.552Z,1000.28
2016-06-17T14:54:14.541Z,1000.27
2016-06-17T14:55:14.528Z,1000.26
2016-06-17T14:56:14.548Z,1000.26
2016-06-17T14:57:14.519Z,1000.26
2016-06-17T14:58:14.507Z,1000.23
2016-06-17T14:59:14.496Z,1000.28
2016-06-17T15:00:14.484Z,1000.22
2016-06-17T15:01:14.487Z,1000.2
2016-06-17T15:02:14.475Z,1000.26
2016-06-17T15:03:14.462Z,1000.23
2016-06-17T15:04:14.451Z,1000.3
2016-06-17T15:05:14.438Z,1000.24
2016-06-17T15:06:14.442Z,1000.21
2016-06-17T15:07:14.429Z,1000.27
2016-06-17T15:08:14.418Z,1000.27
2016-06-17T15:09:14.405Z,1000.23
2016-06-17T15:10:14.393Z,1000.24
2016-06-17T15:11:14.381Z,1000.22
2016-06-17T15:12:14.385Z,1000.24
2016-06-17T15:13:14.372Z,1000.25
2016-06-17T15:14:14.361Z,1000.22
2016-06-17T15:15:14.348Z,1000.28
2016-06-17T15:16:14.336Z,1000.29
2016-06-17T15:17:14.339Z,1000.19
2016-06-17T15:18:14.328Z,1000.22
2016-06-17T15:19:14.315Z,1000.24
2016-06-17T15:20:14.334Z,1000.25
2016-06-17T15:21:14.447Z,1000.26
2016-06-17T15:22:14.310Z,1000.29
2016-06-17T15:23:14.282Z,1000.28
2016-06-17T15:24:14.271Z,1000.32
2016-06-17T15:25:14.258Z,1000.31
2016-06-17T15:26:14.261Z,1000.34
2016-06-17T15:27:14.248Z,1000.36
2016-06-17T15:28:14.252Z,1000.32
2016-06-17T15:29:14.240Z,1000.34
2016-06-17T15:30:14.228Z,1000.36
2016-06-17T15:31:14.217Z,1000.31
2016-06-17T15:32:14.205Z,1000.35
2016-06-17T15:33:14.208Z,1000.33
2016-06-17T15:34:14.196Z,1000.38
2016-06-17T15:35:14.184Z,1000.32
2016-06-17T15:36:14.188Z,1000.34
2016-06-17T15:37:14.172Z,1000.32
2016-06-17T15:38:14.159Z,1000.36
2016-06-17T15:39:14.148Z,1000.35
2016-06-17T15:40:14.152Z,1000.34
2016-06-17T15:41:14.141Z,1000.39
2016-06-17T15:42:14.130Z,1000.45
2016-06-17T15:43:14.120Z,1000.44
2016-06-17T15:44:14.108Z,1000.45
2016-06-17T15:45:14.112Z,1000.48
2016-06-17T15:46:14.100Z,1000.44
2016-06-17T15:47:14.088Z,1000.48
2016-06-17T15:48:14.093Z,1000.5
2016-06-17T15:49:14.080Z,1000.48
2016-06-17T15:50:14.069Z,1000.47
2016-06-17T15:51:14.057Z,1000.46
2016-06-17T15:52:14.061Z,1000.5
2016-06-17T15:53:14.049Z,1000.49
2016-06-17T15:54:14.038Z,1000.49
2016-06-17T15:55:14.041Z,1000.49
2016-06-17T15:56:14.029Z,1000.56
2016-06-17T15:57:14.017Z,1000.56
2016-06-17T15:58:14.020Z,1000.58
2016-06-17T15:59:14.008Z,1000.6
2016-06-17T16:00:13.995Z,1000.61
2016-06-17T16:01:13.984Z,1000.62
2016-06-17T16:02:13.987Z,1000.6
2016-06-17T16:03:14.178Z,1000.65
2016-06-17T16:04:13.963Z,1000.67
2016-06-17T16:05:13.967Z,1000.68
2016-06-17T16:06:13.955Z,1000.68
2016-06-17T16:07:13.941Z,1000.7
2016-06-17T16:08:13.930Z,1000.73
2016-06-17T16:09:13.934Z,1000.7
2016-06-17T16:10:13.922Z,1000.72
2016-06-17T16:11:13.908Z,1000.67
2016-06-17T16:12:13.897Z,1000.67
2016-06-17T16:13:13.900Z,1000.67
2016-06-17T16:14:13.888Z,1000.64
2016-06-17T16:15:13.877Z,1000.69
2016-06-17T16:16:13.864Z,1000.71
2016-06-17T16:17:13.868Z,1000.71
2016-06-17T16:18:13.855Z,1000.71
2016-06-17T16:19:13.844Z,1000.74
2016-06-17T16:20:13.847Z,1000.73
2016-06-17T16:21:13.835Z,1000.67
2016-06-17T16:22:13.822Z,1000.69
2016-06-17T16:23:13.826Z,1000.71
2016-06-17T16:24:13.814Z,1000.66
2016-06-17T16:25:13.817Z,1000.69
2016-06-17T16:26:13.805Z,1000.69
2016-06-17T16:27:13.793Z,1000.68
2016-06-17T16:28:13.781Z,1000.66
2016-06-17T16:29:13.784Z,1000.66
2016-06-17T16:30:13.788Z,1000.7
2016-06-17T16:31:13.760Z,1000.68
2016-06-17T16:32:13.764Z,1000.69
2016-06-17T16:33:13.751Z,1000.72
2016-06-17T16:34:13.738Z,1000.7
2016-06-17T16:35:13.727Z,1000.7
2016-06-17T16:36:13.730Z,1000.65
2016-06-17T16:37:13.718Z,1000.68
2016-06-17T16:38:13.706Z,1000.67
2016-06-17T16:39:13.756Z,1000.67
2016-06-17T16:40:13.697Z,1000.68
2016-06-17T16:41:13.685Z,1000.69
2016-06-17T16:42:13.673Z,1000.72
2016-06-17T16:43:13.676Z,1000.71
2016-06-17T16:44:13.664Z,1000.73
2016-06-17T16:45:13.651Z,1000.73
2016-06-17T16:46:13.640Z,1000.65
2016-06-17T16:47:13.643Z,1000.72
2016-06-17T16:48:13.632Z,1000.71
2016-06-17T16:49:13.623Z,1000.69
2016-06-17T16:50:13.630Z,1000.68
2016-06-17T16:51:13.621Z,1000.69
2016-06-17T16:52:13.611Z,1000.69
2016-06-17T16:53:13.617Z,1000.72
2016-06-17T16:54:13.607Z,1000.73
2016-06-17T16:55:13.595Z,1000.73
2016-06-17T16:56:13.600Z,1000.69
2016-06-17T16:57:13.588Z,1000.73
2016-06-17T16:58:13.578Z,1000.77
2016-06-17T16:59:13.582Z,1000.78
2016-06-17T17:00:13.569Z,1000.79
2016-06-17T17:01:13.559Z,1000.79
2016-06-17T17:02:13.562Z,1000.85
2016-06-17T17:03:13.550Z,1000.86
2016-06-17T17:04:13.538Z,1000.88
2016-06-17T17:05:13.540Z,1000.92
2016-06-17T17:06:13.529Z,1000.92
2016-06-17T17:07:13.532Z,1000.92
2016-06-17T17:08:13.520Z,1000.97
2016-06-17T17:09:13.508Z,1000.96
2016-06-17T17:10:13.511Z,1000.98
2016-06-17T17:11:13.500Z,1000.98
2016-06-17T17:12:13.486Z,1001
2016-06-17T17:13:13.475Z,1000.99
2016-06-17T17:14:13.463Z,1001.04
2016-06-17T17:15:13.466Z,1001.05
2016-06-17T17:16:13.454Z,1001.07
2016-06-17T17:17:13.457Z,1001.1
2016-06-17T17:18:13.446Z,1001.11
2016-06-17T17:19:13.433Z,1001.12
2016-06-17T17:20:13.437Z,1001.14
2016-06-17T17:21:13.424Z,1001.19
2016-06-17T17:22:13.412Z,1001.19
2016-06-17T17:23:13.416Z,1001.2
2016-06-17T17:24:13.404Z,1001.23
2016-06-17T17:25:13.392Z,1001.25
2016-06-17T17:26:13.380Z,1001.25
2016-06-17T17:27:13.383Z,1001.28
2016-06-17T17:28:13.370Z,1001.26
2016-06-17T17:29:13.359Z,1001.25
2016-06-17T17:30:13.362Z,1001.31
2016-06-17T17:31:13.350Z,1001.32
2016-06-17T17:32:13.337Z,1001.32
2016-06-17T17:33:13.326Z,1001.34
2016-06-17T17:34:13.329Z,1001.31
2016-06-17T17:35:13.316Z,1001.35
2016-06-17T17:36:13.305Z,1001.35
2016-06-17T17:37:13.292Z,1001.42
2016-06-17T17:38:13.296Z,1001.41
2016-06-17T17:39:13.283Z,1001.37
2016-06-17T17:40:13.272Z,1001.39
2016-06-17T17:41:13.275Z,1001.44
2016-06-17T17:42:13.262Z,1001.48
2016-06-17T17:43:13.250Z,1001.5
2016-06-17T17:44:13.239Z,1001.5
2016-06-17T17:45:13.242Z,1001.56
2016-06-17T17:46:13.229Z,1001.53
2016-06-17T17:47:13.218Z,1001.58
2016-06-17T17:48:13.205Z,1001.62
2016-06-17T17:49:13.193Z,1001.59
2016-06-17T17:50:13.197Z,1001.58
2016-06-17T17:51:13.231Z,1001.63
2016-06-17T17:52:13.172Z,1001.65
2016-06-17T17:53:13.159Z,1001.64
2016-06-17T17:54:13.148Z,1001.64
2016-06-17T17:55:13.152Z,1001.64
2016-06-17T17:56:13.140Z,1001.69
2016-06-17T17:57:13.145Z,1001.67
2016-06-17T17:58:13.135Z,1001.73
2016-06-17T17:59:13.125Z,1001.74
2016-06-17T18:00:13.114Z,1001.75
2016-06-17T18:01:13.104Z,1001.7
2016-06-17T18:02:13.109Z,1001.72
2016-06-17T18:03:13.096Z,1001.77
2016-06-17T18:04:13.085Z,1001.75
2016-06-17T18:05:13.074Z,1001.76
2016-06-17T18:06:13.062Z,1001.76
2016-06-17T18:07:13.051Z,1001.77
2016-06-17T18:08:13.039Z,1001.79
2016-06-17T18:09:13.026Z,1001.8
2016-06-17T18:10:13.030Z,1001.81
2016-06-17T18:11:13.020Z,1001.79
2016-06-17T18:12:13.006Z,1001.83
2016-06-17T18:13:12.994Z,1001.87
2016-06-17T18:14:12.982Z,1001.89
2016-06-17T18:15:12.986Z,1001.86
2016-06-17T18:16:12.974Z,1001.9
2016-06-17T18:17:12.962Z,1001.89
2016-06-17T18:18:12.950Z,1001.87
2016-06-17T18:19:12.952Z,1001.89
2016-06-17T18:20:12.925Z,1001.81
2016-06-17T18:21:12.929Z,1001.87
2016-06-17T18:22:12.916Z,1001.85
2016-06-17T18:23:12.904Z,1001.82
2016-06-17T18:24:12.892Z,1001.86
2016-06-17T18:25:12.880Z,1001.8
2016-06-17T18:26:12.868Z,1001.82
2016-06-17T18:27:12.856Z,1001.8
2016-06-17T18:28:12.843Z,1001.79
2016-06-17T18:29:12.832Z,1001.79
2016-06-17T18:30:12.819Z,1001.86
2016-06-17T18:31:12.822Z,1001.89
2016-06-17T18:32:12.810Z,1001.88
2016-06-17T18:33:12.798Z,1001.86
2016-06-17T18:34:12.786Z,1001.85
2016-06-17T18:35:12.774Z,1001.86
2016-06-17T18:36:12.762Z,1001.88
2016-06-17T18:37:12.749Z,1001.84
2016-06-17T18:38:12.737Z,1001.91
2016-06-17T18:39:12.725Z,1001.87
2016-06-17T18:40:12.712Z,1001.93
2016-06-17T18:41:12.732Z,1001.92
2016-06-17T18:42:12.705Z,1001.88
2016-06-17T18:43:12.692Z,1001.84
2016-06-17T18:44:12.680Z,1001.85
2016-06-17T18:45:12.668Z,1001.84
2016-06-17T18:46:12.656Z,1001.84
2016-06-17T18:47:12.643Z,1001.84
2016-06-17T18:48:12.632Z,1001.86
2016-06-17T18:49:12.619Z,1001.81
2016-06-17T18:50:12.607Z,1001.88
2016-06-17T18:51:12.595Z,1001.89
2016-06-17T18:52:12.598Z,1001.91
2016-06-17T18:53:12.570Z,1001.89
2016-06-17T18:54:12.558Z,1001.89
2016-06-17T18:55:12.547Z,1001.87
2016-06-17T18:56:12.550Z,1001.86
2016-06-17T18:57:12.521Z,1001.86
2016-06-17T18:58:12.525Z,1001.87
2016-06-17T18:59:12.513Z,1001.9
2016-06-17T19:00:12.500Z,1001.9
2016-06-17T19:01:12.489Z,1001.91
2016-06-17T19:02:12.477Z,1001.94
2016-06-17T19:03:12.464Z,1001.95
2016-06-17T19:04:12.453Z,1001.93
2016-06-17T19:05:12.439Z,1001.97
2016-06-17T19:06:12.443Z,1001.97
2016-06-17T19:07:12.415Z,1002.03
2016-06-17T19:08:12.402Z,1002.01
2016-06-17T19:09:12.390Z,1002.04
2016-06-17T19:10:12.377Z,1002.05
2016-06-17T19:11:12.365Z,1002.03
2016-06-17T19:12:12.368Z,1002.01
2016-06-17T19:13:12.341Z,1002.04
2016-06-17T19:14:12.344Z,1002.05
2016-06-17T19:15:12.332Z,1002.07
2016-06-17T19:16:12.320Z,1002.08
2016-06-17T19:19:12.283Z,1002.12
2016-06-17T19:20:12.271Z,1002.09
2016-06-17T19:21:12.259Z,1002.1
2016-06-17T19:22:12.247Z,1002.1
2016-06-17T19:23:12.235Z,1002.17
2016-06-17T19:24:12.223Z,1002.15
2016-06-17T19:25:12.211Z,1002.18
2016-06-17T19:26:12.199Z,1002.16
2016-06-17T19:43:12.009Z,1002.22
2016-06-17T19:44:11.996Z,1002.22
2016-06-17T19:45:11.984Z,1002.25
2016-06-17T19:46:11.972Z,1002.24
2016-06-17T19:47:11.972Z,1002.26
2016-06-17T19:48:11.961Z,1002.29
2016-06-17T19:49:11.948Z,1002.26
2016-06-17T19:50:11.952Z,1002.28
2016-06-17T19:51:11.925Z,1002.3
2016-06-17T19:52:11.928Z,1002.3
2016-06-17T19:53:11.916Z,1002.29
2016-06-17T19:54:11.888Z,1002.35
2016-06-17T19:55:11.876Z,1002.33
2016-06-17T19:56:11.879Z,1002.38
2016-06-17T19:57:11.852Z,1002.36
2016-06-17T19:58:11.855Z,1002.41
2016-06-17T19:59:11.844Z,1002.44
2016-06-17T20:00:11.831Z,1002.45
2016-06-17T20:01:11.819Z,1002.44
2016-06-17T20:02:11.807Z,1002.41
2016-06-17T20:03:11.794Z,1002.41
2016-06-17T20:04:11.782Z,1002.46
2016-06-17T20:05:11.770Z,1002.45
2016-06-17T20:06:11.758Z,1002.51
2016-06-17T20:07:11.746Z,1002.48
2016-06-17T20:08:11.734Z,1002.53
2016-06-17T20:09:11.721Z,1002.53
2016-06-17T20:10:11.709Z,1002.54
2016-06-17T20:11:11.698Z,1002.58
2016-06-17T20:12:11.732Z,1002.58
2016-06-17T20:13:11.675Z,1002.6
2016-06-17T20:14:11.698Z,1002.62
2016-06-17T20:15:11.704Z,1002.65
2016-06-17T20:16:11.648Z,1002.66
2016-06-17T20:17:11.639Z,1002.67
2016-06-17T20:18:11.629Z,1002.7
2016-06-17T20:19:11.617Z,1002.67
2016-06-17T20:20:11.606Z,1002.67
2016-06-17T20:21:11.596Z,1002.7
2016-06-17T20:22:11.584Z,1002.69
2016-06-17T20:23:11.574Z,1002.67
2016-06-17T20:24:11.577Z,1002.69
2016-06-17T20:25:11.565Z,1002.69
2016-06-17T20:26:11.553Z,1002.68
2016-06-17T20:27:11.542Z,1002.7
2016-06-17T20:28:11.530Z,1002.69
2016-06-17T20:29:11.503Z,1002.73
2016-06-17T20:30:11.507Z,1002.69
2016-06-17T20:31:11.494Z,1002.71
2016-06-17T20:32:11.483Z,1002.72
2016-06-17T20:33:11.470Z,1002.72
2016-06-17T20:34:11.458Z,1002.72
2016-06-17T20:35:11.447Z,1002.76
2016-06-17T20:36:11.434Z,1002.71
2016-06-17T20:37:11.438Z,1002.68
2016-06-17T20:38:11.410Z,1002.68
2016-06-17T20:39:11.397Z,1002.7
2016-06-17T20:40:11.386Z,1002.71
2016-06-17T20:41:11.373Z,1002.7
2016-06-17T20:42:11.360Z,1002.67
2016-06-17T20:43:11.349Z,1002.68
2016-06-17T20:44:11.336Z,1002.68
2016-06-17T20:45:11.324Z,1002.69
2016-06-17T20:46:11.313Z,1002.7
2016-06-17T20:47:11.300Z,1002.72
2016-06-17T20:48:11.289Z,1002.72
2016-06-17T20:49:11.276Z,1002.73
2016-06-17T20:50:11.264Z,1002.69
2016-06-17T20:51:11.252Z,1002.73
2016-06-17T20:52:11.255Z,1002.69
2016-06-17T20:53:11.226Z,1002.71
2016-06-17T20:54:11.215Z,1002.73
2016-06-17T20:55:11.202Z,1002.71
2016-06-17T20:56:11.191Z,1002.73
2016-06-17T20:57:11.195Z,1002.71
2016-06-17T20:58:11.182Z,1002.71
2016-06-17T20:59:11.170Z,1002.65
2016-06-17T21:00:11.157Z,1002.68
2016-06-17T21:01:11.130Z,1002.65
2016-06-17T21:02:11.133Z,1002.67
2016-06-17T21:03:11.121Z,1002.67
2016-06-17T21:04:11.108Z,1002.64
2016-06-17T21:05:11.097Z,1002.61
2016-06-17T21:06:11.085Z,1002.62
2016-06-17T21:07:11.072Z,1002.62
2016-06-17T21:08:11.061Z,1002.61
2016-06-17T21:09:11.048Z,1002.62
2016-06-17T21:10:11.036Z,1002.64
2016-06-17T21:11:11.023Z,1002.65
2016-06-17T21:12:11.012Z,1002.63
2016-06-17T21:13:11.000Z,1002.66
2016-06-17T21:14:10.987Z,1002.67
2016-06-17T21:15:10.974Z,1002.67
2016-06-17T21:16:10.963Z,1002.72
2016-06-17T21:17:10.951Z,1002.77
2016-06-17T21:18:10.938Z,1002.78
2016-06-17T21:19:10.927Z,1002.81
2016-06-17T21:20:10.914Z,1002.84
2016-06-17T21:21:10.935Z,1002.84
2016-06-17T21:22:10.892Z,1002.9
2016-06-17T21:23:10.881Z,1002.9
2016-06-17T21:24:10.870Z,1002.87
2016-06-17T21:25:10.859Z,1002.88
2016-06-17T21:26:10.846Z,1002.88
2016-06-17T21:27:10.836Z,1002.86
2016-06-17T21:28:10.839Z,1002.88
2016-06-17T21:29:10.813Z,1002.89
2016-06-17T21:30:10.800Z,1002.88
2016-06-17T21:31:10.787Z,1002.87
2016-06-17T21:32:10.776Z,1002.86
2016-06-17T21:33:10.763Z,1002.83
2016-06-17T21:34:10.751Z,1002.9
2016-06-17T21:35:10.739Z,1002.91
2016-06-17T21:36:10.743Z,1002.9
2016-06-17T21:37:10.730Z,1002.93
2016-06-17T21:38:10.719Z,1002.94
2016-06-17T21:39:10.706Z,1002.93
2016-06-17T21:40:10.694Z,1002.97
2016-06-17T21:42:10.669Z,1003.01
2016-06-17T21:43:10.658Z,1003.01
2016-06-17T21:44:10.646Z,1003.09
2016-06-17T21:45:10.633Z,1003.07
2016-06-17T21:46:10.621Z,1003.09
2016-06-17T21:47:10.609Z,1003.1
2016-06-17T21:48:10.596Z,1003.13
2016-06-17T21:49:10.585Z,1003.15
2016-06-17T21:50:10.572Z,1003.14
2016-06-17T21:51:10.560Z,1003.18
2016-06-17T21:52:10.549Z,1003.2
2016-06-17T21:53:10.536Z,1003.21
2016-06-17T21:54:10.525Z,1003.2
2016-06-17T21:55:10.512Z,1003.21
2016-06-17T21:56:10.499Z,1003.24
2016-06-17T21:57:10.471Z,1003.21
2016-06-17T21:58:10.475Z,1003.23
2016-06-17T21:59:10.462Z,1003.25
2016-06-17T22:00:10.451Z,1003.23
2016-06-17T22:01:10.438Z,1003.23
2016-06-17T22:02:10.427Z,1003.26
2016-06-17T22:03:10.415Z,1003.24
2016-06-17T22:04:10.402Z,1003.24
2016-06-17T22:05:10.391Z,1003.29
2016-06-17T22:06:10.378Z,1003.26
2016-06-17T22:07:10.365Z,1003.32
2016-06-17T22:08:10.353Z,1003.31
2016-06-17T22:09:10.341Z,1003.31
2016-06-17T22:10:10.313Z,1003.32
2016-06-17T22:11:10.317Z,1003.33
2016-06-17T22:12:10.304Z,1003.35
2016-06-17T22:13:10.277Z,1003.37
2016-06-17T22:14:10.281Z,1003.38
2016-06-17T22:15:10.268Z,1003.38
2016-06-17T22:16:10.241Z,1003.4
2016-06-17T22:17:10.229Z,1003.38
2016-06-17T22:18:10.232Z,1003.4
2016-06-17T22:19:10.220Z,1003.41
2016-06-17T22:20:10.192Z,1003.4
2016-06-17T22:21:10.179Z,1003.43
2016-06-17T22:22:10.183Z,1003.42
2016-06-17T22:23:10.155Z,1003.43
2016-06-17T22:24:10.143Z,1003.44
2016-06-17T22:25:10.147Z,1003.38
2016-06-17T22:26:10.135Z,1003.41
2016-06-17T22:27:10.107Z,1003.43
2016-06-17T22:28:10.095Z,1003.42
2016-06-17T22:29:10.082Z,1003.43
2016-06-17T22:30:10.070Z,1003.43
2016-06-17T22:31:10.059Z,1003.45
2016-06-17T22:32:10.045Z,1003.46
2016-06-17T22:33:10.034Z,1003.44
2016-06-17T22:34:10.021Z,1003.46
2016-06-17T22:35:10.009Z,1003.47
2016-06-17T22:36:09.997Z,1003.55
2016-06-17T22:37:10.001Z,1003.5
2016-06-17T22:38:09.972Z,1003.55
2016-06-17T22:39:09.961Z,1003.54
2016-06-17T22:40:09.948Z,1003.54
2016-06-17T22:41:09.937Z,1003.54
2016-06-17T22:42:09.925Z,1003.5
2016-06-17T22:43:09.911Z,1003.5
2016-06-17T22:44:09.900Z,1003.47
2016-06-17T22:45:09.888Z,1003.45
2016-06-17T22:46:09.875Z,1003.51
2016-06-17T22:47:09.864Z,1003.54
2016-06-17T22:48:09.867Z,1003.49
2016-06-17T22:49:09.839Z,1003.52
2016-06-17T22:50:09.827Z,1003.5
2016-06-17T22:51:09.814Z,1003.52
2016-06-17T22:52:09.803Z,1003.5
2016-06-17T22:53:09.791Z,1003.54
2016-06-17T22:54:09.778Z,1003.56
2016-06-17T22:55:09.766Z,1003.56
2016-06-17T22:56:09.753Z,1003.54
2016-06-17T22:57:09.742Z,1003.54
2016-06-17T22:58:09.729Z,1003.56
2016-06-17T22:59:09.717Z,1003.57
2016-06-17T23:00:09.705Z,1003.55
2016-06-17T23:01:09.693Z,1003.53
2016-06-17T23:02:09.680Z,1003.49
2016-06-17T23:03:09.669Z,1003.53
2016-06-17T23:04:09.657Z,1003.53
2016-06-17T23:05:09.645Z,1003.5
2016-06-17T23:06:09.633Z,1003.48
2016-06-17T23:07:09.620Z,1003.49
2016-06-17T23:08:09.608Z,1003.47
2016-06-17T23:09:09.595Z,1003.49
2016-06-17T23:10:09.583Z,1003.5
2016-06-17T23:11:09.571Z,1003.49
2016-06-17T23:12:09.559Z,1003.49
2016-06-17T23:13:09.547Z,1003.51
2016-06-17T23:14:09.535Z,1003.54
2016-06-17T23:15:09.523Z,1003.52
2016-06-17T23:16:09.511Z,1003.5
2016-06-17T23:17:09.498Z,1003.51
2016-06-17T23:18:09.486Z,1003.49
2016-06-17T23:19:09.474Z,1003.53
2016-06-17T23:20:09.462Z,1003.48
2016-06-17T23:21:09.450Z,1003.51
2016-06-17T23:22:09.438Z,1003.47
2016-06-17T23:23:09.425Z,1003.52
2016-06-17T23:24:09.413Z,1003.46
2016-06-17T23:25:09.401Z,1003.51
2016-06-17T23:26:09.388Z,1003.52
2016-06-17T23:27:09.377Z,1003.51
2016-06-17T23:28:09.364Z,1003.51
2016-06-17T23:29:09.353Z,1003.53
2016-06-17T23:30:09.340Z,1003.5
2016-06-17T23:31:09.328Z,1003.5
2016-06-17T23:32:09.301Z,1003.49
2016-06-17T23:33:09.304Z,1003.48
2016-06-17T23:34:09.276Z,1003.49
2016-06-17T23:35:09.263Z,1003.55
2016-06-17T23:36:09.267Z,1003.49
2016-06-17T23:37:09.256Z,1003.49
2016-06-17T23:38:09.230Z,1003.51
2016-06-17T23:39:09.220Z,1003.49
2016-06-17T23:40:09.210Z,1003.52
2016-06-17T23:41:09.198Z,1003.55
2016-06-17T23:42:09.189Z,1003.57
2016-06-17T23:43:09.177Z,1003.56
2016-06-17T23:44:09.166Z,1003.56
2016-06-17T23:45:09.155Z,1003.56
2016-06-17T23:46:09.142Z,1003.56
2016-06-17T23:47:09.132Z,1003.59
2016-06-17T23:48:09.119Z,1003.59
2016-06-17T23:49:09.107Z,1003.62
2016-06-17T23:50:09.094Z,1003.63
2016-06-17T23:51:09.083Z,1003.61
2016-06-17T23:52:09.070Z,1003.66
2016-06-17T23:53:09.058Z,1003.65
2016-06-17T23:54:09.046Z,1003.64
2016-06-17T23:55:09.034Z,1003.63
2016-06-17T23:56:09.021Z,1003.68
2016-06-17T23:57:09.009Z,1003.66
2016-06-17T23:58:08.997Z,1003.68
2016-06-17T23:59:08.985Z,1003.7
